Impacts TAF Board
For situational awareness. Not to be used for flight planning purposes.
IDs:

KFST - Fort Stockton/Pecos, TX, US

Issued at 2145 UTC 02 Aug 2021
Updated at 2213 UTC 02 Aug 2021
Potential Impact None Slight Moderate High
Time2153Z 02/23Z 03/00Z 03/01Z 03/02Z 03/03Z 03/04Z 03/05Z 03/06Z 03/07Z 03/08Z 03/09Z 03/10Z 03/11Z>>
Type OBS PRVL PRVL PRVL PRVL PRVL PRVL PRVL PRVL PRVL PRVL PRVL PRVL PRVL
VIS 10 >6 >6 >6 >6 >6 >6 >6 >6 >6 >6 >6 >6 >6
CIG 60 21 -- -- -- -- -- -- -- -- -- -- -- --
Cover OVC BKN SCT SCT SKC SKC SKC SKC SKC SKC SKC SKC SKC SKC
FltCat VFR MVFR VFR VFR VFR VFR VFR VFR VFR VFR VFR VFR VFR VFR
WX -- -- -- -- -- -- -- -- -- -- -- -- -- --
WDir 40 50 40 40 120 120 120 120 120 120 120 120 120 120
WSpd 8 10 9 9 6 6 6 6 6 6 6 6 6 6
WGst -- -- -- -- -- -- -- -- -- -- -- -- -- --
Raw TAF
KFST 022145Z 0222/0318 05010KT P6SM BKN021
  FM030000 04009KT P6SM SCT050 SCT250
  FM030200 12006KT P6SM SKC


Raw METAR
KFST 022153Z AUTO 04008KT 10SM FEW022 SCT026 OVC060 25/19 A3015 RMK AO2 SLP167 T02500189 $
KFST 022146Z AUTO 05007KT 10SM FEW019 SCT024 OVC060 25/19 A3015 RMK AO2 T02500189 $
KFST 022130Z AUTO 05006KT 10SM BKN021 25/20 A3016 RMK AO2 T02500200 $
KFST 022053Z AUTO 11007KT 10SM FEW012 FEW023 SCT040 24/21 A3018 RMK AO2 RAB31E47 SLP177 P0000 60023 T02390211 $
KFST 022050Z AUTO 11008KT 10SM FEW014 SCT029 SCT040 23/21 A3018 RMK AO2 RAB31E47 P0000 $
KFST 022027Z AUTO 08010KT 10SM FEW010 BKN017 OVC120 23/20 A3019 RMK AO2 T02280200 $
KFST 021953Z AUTO 02003KT 10SM BKN095 BKN110 23/20 A3021 RMK AO2 LTG DSNT E RAB1859E19 SLP187 P0000 T02280200 $
KFST 021942Z AUTO 00000KT 10SM VCTS BKN095 BKN110 22/19 A3021 RMK AO2 LTG DSNT E RAB1859E19 P0000 T02220194 $

METAR Board
Radar Display
Forecast Discussion
For situational awareness. Not to be used for flight planning purposes.